sensor_id;sensor_type;location;lat;lon;timestamp;P1;durP1;ratioP1;P2;durP2;ratioP2
6537;SDS011;3302;52.508;13.454;2023-03-13T00:01:29;9.20;;;5.43;;
6537;SDS011;3302;52.508;13.454;2023-03-13T00:04:03;13.27;;;5.63;;
6537;SDS011;3302;52.508;13.454;2023-03-13T00:06:30;13.70;;;6.23;;
6537;SDS011;3302;52.508;13.454;2023-03-13T00:08:58;10.60;;;5.77;;
6537;SDS011;3302;52.508;13.454;2023-03-13T00:11:25;8.80;;;5.77;;
6537;SDS011;3302;52.508;13.454;2023-03-13T00:13:55;9.30;;;5.77;;
6537;SDS011;3302;52.508;13.454;2023-03-13T00:16:23;10.47;;;5.70;;
6537;SDS011;3302;52.508;13.454;2023-03-13T00:18:50;10.17;;;5.50;;
6537;SDS011;3302;52.508;13.454;2023-03-13T00:21:18;11.07;;;5.63;;
6537;SDS011;3302;52.508;13.454;2023-03-13T00:23:45;11.60;;;6.40;;
6537;SDS011;3302;52.508;13.454;2023-03-13T00:26:12;11.77;;;6.07;;
6537;SDS011;3302;52.508;13.454;2023-03-13T00:28:46;11.77;;;6.00;;
6537;SDS011;3302;52.508;13.454;2023-03-13T00:31:14;12.97;;;5.77;;
6537;SDS011;3302;52.508;13.454;2023-03-13T00:33:42;11.13;;;5.60;;
6537;SDS011;3302;52.508;13.454;2023-03-13T00:36:10;9.57;;;6.10;;
6537;SDS011;3302;52.508;13.454;2023-03-13T00:38:41;12.60;;;6.13;;
6537;SDS011;3302;52.508;13.454;2023-03-13T00:41:08;11.80;;;6.37;;
6537;SDS011;3302;52.508;13.454;2023-03-13T00:43:39;13.50;;;5.87;;
6537;SDS011;3302;52.508;13.454;2023-03-13T00:46:06;14.30;;;6.23;;
6537;SDS011;3302;52.508;13.454;2023-03-13T00:48:32;11.30;;;5.73;;
6537;SDS011;3302;52.508;13.454;2023-03-13T00:50:59;12.83;;;5.70;;
6537;SDS011;3302;52.508;13.454;2023-03-13T00:53:26;13.10;;;6.87;;
6537;SDS011;3302;52.508;13.454;2023-03-13T00:55:58;10.07;;;6.00;;
6537;SDS011;3302;52.508;13.454;2023-03-13T00:58:28;15.30;;;6.43;;
6537;SDS011;3302;52.508;13.454;2023-03-13T01:00:55;12.47;;;6.47;;
6537;SDS011;3302;52.508;13.454;2023-03-13T01:03:22;14.27;;;6.30;;
6537;SDS011;3302;52.508;13.454;2023-03-13T01:05:55;10.90;;;5.90;;
6537;SDS011;3302;52.508;13.454;2023-03-13T01:08:25;11.80;;;6.90;;
6537;SDS011;3302;52.508;13.454;2023-03-13T01:11:01;12.97;;;6.60;;
6537;SDS011;3302;52.508;13.454;2023-03-13T01:13:47;10.13;;;6.23;;
6537;SDS011;3302;52.508;13.454;2023-03-13T01:16:15;12.03;;;5.50;;
6537;SDS011;3302;52.508;13.454;2023-03-13T01:18:44;9.70;;;5.93;;
6537;SDS011;3302;52.508;13.454;2023-03-13T01:21:12;13.03;;;6.27;;
6537;SDS011;3302;52.508;13.454;2023-03-13T01:23:39;10.10;;;6.53;;
6537;SDS011;3302;52.508;13.454;2023-03-13T01:26:06;10.07;;;5.73;;
6537;SDS011;3302;52.508;13.454;2023-03-13T01:28:33;13.23;;;6.30;;
6537;SDS011;3302;52.508;13.454;2023-03-13T01:30:59;12.37;;;6.43;;
6537;SDS011;3302;52.508;13.454;2023-03-13T01:33:34;12.53;;;6.70;;
6537;SDS011;3302;52.508;13.454;2023-03-13T01:36:00;12.57;;;6.10;;
6537;SDS011;3302;52.508;13.454;2023-03-13T01:38:26;10.67;;;6.40;;
6537;SDS011;3302;52.508;13.454;2023-03-13T01:40:52;11.70;;;6.30;;
6537;SDS011;3302;52.508;13.454;2023-03-13T01:43:20;10.10;;;6.07;;
6537;SDS011;3302;52.508;13.454;2023-03-13T01:48:25;9.13;;;6.30;;
6537;SDS011;3302;52.508;13.454;2023-03-13T01:51:11;12.23;;;6.60;;
6537;SDS011;3302;52.508;13.454;2023-03-13T01:53:42;12.93;;;6.03;;
6537;SDS011;3302;52.508;13.454;2023-03-13T01:56:17;13.60;;;6.60;;
6537;SDS011;3302;52.508;13.454;2023-03-13T01:58:53;13.03;;;6.47;;
6537;SDS011;3302;52.508;13.454;2023-03-13T02:01:21;10.93;;;6.00;;
6537;SDS011;3302;52.508;13.454;2023-03-13T02:03:48;10.37;;;5.57;;
6537;SDS011;3302;52.508;13.454;2023-03-13T02:06:15;9.20;;;5.93;;
6537;SDS011;3302;52.508;13.454;2023-03-13T02:08:42;12.17;;;6.43;;
6537;SDS011;3302;52.508;13.454;2023-03-13T02:11:23;12.37;;;5.63;;
6537;SDS011;3302;52.508;13.454;2023-03-13T02:13:56;11.13;;;6.27;;
6537;SDS011;3302;52.508;13.454;2023-03-13T02:16:24;9.33;;;5.50;;
6537;SDS011;3302;52.508;13.454;2023-03-13T02:18:51;9.87;;;5.60;;
6537;SDS011;3302;52.508;13.454;2023-03-13T02:21:26;10.43;;;5.63;;
6537;SDS011;3302;52.508;13.454;2023-03-13T02:24:06;11.37;;;6.13;;
6537;SDS011;3302;52.508;13.454;2023-03-13T02:26:56;9.33;;;6.00;;
6537;SDS011;3302;52.508;13.454;2023-03-13T02:29:22;9.47;;;5.53;;
6537;SDS011;3302;52.508;13.454;2023-03-13T02:31:49;10.73;;;5.50;;
6537;SDS011;3302;52.508;13.454;2023-03-13T02:34:18;8.37;;;5.67;;
6537;SDS011;3302;52.508;13.454;2023-03-13T02:36:46;12.33;;;5.20;;
6537;SDS011;3302;52.508;13.454;2023-03-13T02:39:13;9.20;;;6.00;;
6537;SDS011;3302;52.508;13.454;2023-03-13T02:41:43;10.70;;;5.10;;
6537;SDS011;3302;52.508;13.454;2023-03-13T02:44:10;12.20;;;6.40;;
6537;SDS011;3302;52.508;13.454;2023-03-13T02:46:43;9.33;;;5.87;;
6537;SDS011;3302;52.508;13.454;2023-03-13T02:49:31;15.17;;;5.80;;
6537;SDS011;3302;52.508;13.454;2023-03-13T02:51:57;10.00;;;5.27;;
6537;SDS011;3302;52.508;13.454;2023-03-13T02:54:35;11.90;;;5.80;;
6537;SDS011;3302;52.508;13.454;2023-03-13T02:57:03;9.43;;;5.60;;
6537;SDS011;3302;52.508;13.454;2023-03-13T02:59:30;13.07;;;5.83;;
6537;SDS011;3302;52.508;13.454;2023-03-13T03:01:56;9.33;;;5.60;;
6537;SDS011;3302;52.508;13.454;2023-03-13T03:04:23;14.57;;;5.97;;
6537;SDS011;3302;52.508;13.454;2023-03-13T03:06:50;11.97;;;5.83;;
6537;SDS011;3302;52.508;13.454;2023-03-13T03:09:16;11.47;;;5.37;;
6537;SDS011;3302;52.508;13.454;2023-03-13T03:11:43;7.53;;;5.63;;
6537;SDS011;3302;52.508;13.454;2023-03-13T03:14:09;8.73;;;5.20;;
6537;SDS011;3302;52.508;13.454;2023-03-13T03:16:35;10.13;;;5.30;;
6537;SDS011;3302;52.508;13.454;2023-03-13T03:19:01;9.40;;;4.83;;
6537;SDS011;3302;52.508;13.454;2023-03-13T03:21:27;10.60;;;5.13;;
6537;SDS011;3302;52.508;13.454;2023-03-13T03:23:53;11.50;;;5.80;;
6537;SDS011;3302;52.508;13.454;2023-03-13T03:26:19;12.60;;;5.73;;
6537;SDS011;3302;52.508;13.454;2023-03-13T03:28:45;10.60;;;5.80;;
6537;SDS011;3302;52.508;13.454;2023-03-13T03:31:11;11.53;;;4.43;;
6537;SDS011;3302;52.508;13.454;2023-03-13T03:33:38;10.20;;;4.60;;
6537;SDS011;3302;52.508;13.454;2023-03-13T03:36:06;10.73;;;5.40;;
6537;SDS011;3302;52.508;13.454;2023-03-13T03:38:34;8.80;;;4.83;;
6537;SDS011;3302;52.508;13.454;2023-03-13T03:41:00;9.37;;;5.10;;
6537;SDS011;3302;52.508;13.454;2023-03-13T03:43:26;8.20;;;4.40;;
6537;SDS011;3302;52.508;13.454;2023-03-13T03:45:52;9.60;;;4.10;;
6537;SDS011;3302;52.508;13.454;2023-03-13T03:48:18;9.27;;;4.30;;
6537;SDS011;3302;52.508;13.454;2023-03-13T03:50:43;10.27;;;4.00;;
6537;SDS011;3302;52.508;13.454;2023-03-13T03:53:09;11.40;;;4.23;;
6537;SDS011;3302;52.508;13.454;2023-03-13T03:55:35;12.13;;;3.60;;
6537;SDS011;3302;52.508;13.454;2023-03-13T03:58:01;9.20;;;3.97;;
6537;SDS011;3302;52.508;13.454;2023-03-13T04:00:27;13.77;;;4.60;;
6537;SDS011;3302;52.508;13.454;2023-03-13T04:02:53;13.27;;;4.10;;
6537;SDS011;3302;52.508;13.454;2023-03-13T04:05:20;7.60;;;3.73;;
6537;SDS011;3302;52.508;13.454;2023-03-13T04:07:47;10.33;;;4.00;;
6537;SDS011;3302;52.508;13.454;2023-03-13T04:10:13;10.60;;;4.47;;
6537;SDS011;3302;52.508;13.454;2023-03-13T04:12:39;10.47;;;3.43;;
6537;SDS011;3302;52.508;13.454;2023-03-13T04:15:05;11.17;;;3.70;;
6537;SDS011;3302;52.508;13.454;2023-03-13T04:17:31;13.77;;;3.80;;
6537;SDS011;3302;52.508;13.454;2023-03-13T04:19:58;8.57;;;3.43;;
6537;SDS011;3302;52.508;13.454;2023-03-13T04:22:24;10.40;;;3.57;;
6537;SDS011;3302;52.508;13.454;2023-03-13T04:24:50;10.77;;;3.50;;
6537;SDS011;3302;52.508;13.454;2023-03-13T04:27:17;12.67;;;4.17;;
6537;SDS011;3302;52.508;13.454;2023-03-13T04:29:43;10.00;;;3.77;;
6537;SDS011;3302;52.508;13.454;2023-03-13T04:32:09;7.97;;;3.40;;
6537;SDS011;3302;52.508;13.454;2023-03-13T04:34:35;10.50;;;3.93;;
6537;SDS011;3302;52.508;13.454;2023-03-13T04:37:01;11.27;;;3.63;;
6537;SDS011;3302;52.508;13.454;2023-03-13T04:39:26;9.17;;;3.63;;
6537;SDS011;3302;52.508;13.454;2023-03-13T04:41:53;11.00;;;4.43;;
6537;SDS011;3302;52.508;13.454;2023-03-13T04:44:20;13.20;;;4.03;;
6537;SDS011;3302;52.508;13.454;2023-03-13T04:46:46;12.23;;;3.80;;
6537;SDS011;3302;52.508;13.454;2023-03-13T04:49:13;15.07;;;3.60;;
6537;SDS011;3302;52.508;13.454;2023-03-13T04:51:42;8.80;;;3.23;;
6537;SDS011;3302;52.508;13.454;2023-03-13T04:54:09;11.50;;;4.40;;
6537;SDS011;3302;52.508;13.454;2023-03-13T04:56:35;9.60;;;3.53;;
6537;SDS011;3302;52.508;13.454;2023-03-13T04:59:01;8.50;;;3.33;;
6537;SDS011;3302;52.508;13.454;2023-03-13T05:01:26;12.47;;;3.73;;
6537;SDS011;3302;52.508;13.454;2023-03-13T05:03:52;10.47;;;4.30;;
6537;SDS011;3302;52.508;13.454;2023-03-13T05:06:18;13.87;;;3.60;;
6537;SDS011;3302;52.508;13.454;2023-03-13T05:08:44;8.83;;;3.27;;
6537;SDS011;3302;52.508;13.454;2023-03-13T05:11:10;13.20;;;3.37;;
6537;SDS011;3302;52.508;13.454;2023-03-13T05:13:36;12.93;;;3.47;;
6537;SDS011;3302;52.508;13.454;2023-03-13T05:16:02;8.53;;;3.57;;
6537;SDS011;3302;52.508;13.454;2023-03-13T05:18:28;8.97;;;3.37;;
6537;SDS011;3302;52.508;13.454;2023-03-13T05:20:55;16.27;;;3.93;;
6537;SDS011;3302;52.508;13.454;2023-03-13T05:23:20;10.97;;;3.13;;
6537;SDS011;3302;52.508;13.454;2023-03-13T05:25:46;11.03;;;3.17;;
6537;SDS011;3302;52.508;13.454;2023-03-13T05:28:12;9.93;;;4.20;;
6537;SDS011;3302;52.508;13.454;2023-03-13T05:30:38;10.87;;;3.53;;
6537;SDS011;3302;52.508;13.454;2023-03-13T05:33:04;10.60;;;4.00;;
6537;SDS011;3302;52.508;13.454;2023-03-13T05:35:29;18.77;;;4.00;;
6537;SDS011;3302;52.508;13.454;2023-03-13T05:37:55;14.23;;;3.73;;
6537;SDS011;3302;52.508;13.454;2023-03-13T05:40:21;12.53;;;3.70;;
6537;SDS011;3302;52.508;13.454;2023-03-13T05:42:47;9.57;;;3.83;;
6537;SDS011;3302;52.508;13.454;2023-03-13T05:45:13;10.17;;;3.83;;
6537;SDS011;3302;52.508;13.454;2023-03-13T05:47:38;8.60;;;3.73;;
6537;SDS011;3302;52.508;13.454;2023-03-13T05:50:05;10.27;;;3.87;;
6537;SDS011;3302;52.508;13.454;2023-03-13T05:52:32;11.03;;;3.70;;
6537;SDS011;3302;52.508;13.454;2023-03-13T05:54:58;14.93;;;4.33;;
6537;SDS011;3302;52.508;13.454;2023-03-13T05:57:24;13.33;;;3.40;;
6537;SDS011;3302;52.508;13.454;2023-03-13T05:59:50;10.30;;;3.30;;
6537;SDS011;3302;52.508;13.454;2023-03-13T06:02:16;12.10;;;3.67;;
6537;SDS011;3302;52.508;13.454;2023-03-13T06:04:41;9.73;;;3.77;;
6537;SDS011;3302;52.508;13.454;2023-03-13T06:07:07;11.33;;;3.90;;
6537;SDS011;3302;52.508;13.454;2023-03-13T06:09:33;12.30;;;3.67;;
6537;SDS011;3302;52.508;13.454;2023-03-13T06:11:59;16.93;;;4.53;;
6537;SDS011;3302;52.508;13.454;2023-03-13T06:14:24;11.17;;;4.30;;
6537;SDS011;3302;52.508;13.454;2023-03-13T06:16:52;11.60;;;3.23;;
6537;SDS011;3302;52.508;13.454;2023-03-13T06:19:19;15.40;;;3.70;;
6537;SDS011;3302;52.508;13.454;2023-03-13T06:21:45;12.07;;;4.10;;
6537;SDS011;3302;52.508;13.454;2023-03-13T06:24:11;15.67;;;4.13;;
6537;SDS011;3302;52.508;13.454;2023-03-13T06:26:37;14.43;;;4.03;;
6537;SDS011;3302;52.508;13.454;2023-03-13T06:29:02;12.00;;;3.87;;
6537;SDS011;3302;52.508;13.454;2023-03-13T06:31:28;14.20;;;4.07;;
6537;SDS011;3302;52.508;13.454;2023-03-13T06:33:54;10.50;;;3.90;;
6537;SDS011;3302;52.508;13.454;2023-03-13T06:36:21;13.17;;;3.73;;
6537;SDS011;3302;52.508;13.454;2023-03-13T06:38:48;11.50;;;3.40;;
6537;SDS011;3302;52.508;13.454;2023-03-13T06:41:14;16.63;;;4.43;;
6537;SDS011;3302;52.508;13.454;2023-03-13T06:43:40;15.80;;;4.30;;
6537;SDS011;3302;52.508;13.454;2023-03-13T06:46:06;15.33;;;4.00;;
6537;SDS011;3302;52.508;13.454;2023-03-13T06:48:33;13.30;;;3.77;;
6537;SDS011;3302;52.508;13.454;2023-03-13T06:50:59;12.67;;;3.83;;
6537;SDS011;3302;52.508;13.454;2023-03-13T06:53:25;14.13;;;3.63;;
6537;SDS011;3302;52.508;13.454;2023-03-13T06:55:50;11.63;;;5.10;;
6537;SDS011;3302;52.508;13.454;2023-03-13T06:58:16;8.80;;;4.00;;
6537;SDS011;3302;52.508;13.454;2023-03-13T07:00:43;11.60;;;3.73;;
6537;SDS011;3302;52.508;13.454;2023-03-13T07:03:09;13.33;;;4.63;;
6537;SDS011;3302;52.508;13.454;2023-03-13T07:05:35;13.27;;;4.30;;
6537;SDS011;3302;52.508;13.454;2023-03-13T07:08:01;15.03;;;3.83;;
6537;SDS011;3302;52.508;13.454;2023-03-13T07:10:29;19.83;;;4.77;;
6537;SDS011;3302;52.508;13.454;2023-03-13T07:12:55;10.40;;;3.67;;
6537;SDS011;3302;52.508;13.454;2023-03-13T07:15:21;11.23;;;4.20;;
6537;SDS011;3302;52.508;13.454;2023-03-13T07:17:47;11.40;;;4.00;;
6537;SDS011;3302;52.508;13.454;2023-03-13T07:20:12;11.63;;;3.50;;
6537;SDS011;3302;52.508;13.454;2023-03-13T07:22:38;11.60;;;3.87;;
6537;SDS011;3302;52.508;13.454;2023-03-13T07:25:04;9.83;;;3.57;;
6537;SDS011;3302;52.508;13.454;2023-03-13T07:27:31;11.83;;;3.40;;
6537;SDS011;3302;52.508;13.454;2023-03-13T07:29:57;12.30;;;4.20;;
6537;SDS011;3302;52.508;13.454;2023-03-13T07:32:22;11.40;;;3.87;;
6537;SDS011;3302;52.508;13.454;2023-03-13T07:34:48;14.20;;;4.00;;
6537;SDS011;3302;52.508;13.454;2023-03-13T07:37:14;11.37;;;3.57;;
6537;SDS011;3302;52.508;13.454;2023-03-13T07:39:41;9.83;;;4.03;;
6537;SDS011;3302;52.508;13.454;2023-03-13T07:42:09;15.40;;;5.60;;
6537;SDS011;3302;52.508;13.454;2023-03-13T07:44:36;13.07;;;3.80;;
6537;SDS011;3302;52.508;13.454;2023-03-13T07:47:02;13.27;;;4.17;;
6537;SDS011;3302;52.508;13.454;2023-03-13T07:49:28;16.67;;;4.33;;
6537;SDS011;3302;52.508;13.454;2023-03-13T07:51:54;8.77;;;3.70;;
6537;SDS011;3302;52.508;13.454;2023-03-13T07:54:20;13.97;;;4.93;;
6537;SDS011;3302;52.508;13.454;2023-03-13T07:56:45;12.50;;;3.57;;
6537;SDS011;3302;52.508;13.454;2023-03-13T07:59:11;14.23;;;3.97;;
6537;SDS011;3302;52.508;13.454;2023-03-13T08:01:37;13.27;;;3.70;;
6537;SDS011;3302;52.508;13.454;2023-03-13T08:04:03;14.07;;;4.27;;
6537;SDS011;3302;52.508;13.454;2023-03-13T08:06:30;13.13;;;4.13;;
6537;SDS011;3302;52.508;13.454;2023-03-13T08:08:59;15.10;;;4.37;;
6537;SDS011;3302;52.508;13.454;2023-03-13T08:11:26;15.20;;;4.10;;
6537;SDS011;3302;52.508;13.454;2023-03-13T08:13:53;10.03;;;3.50;;
6537;SDS011;3302;52.508;13.454;2023-03-13T08:16:20;10.97;;;4.50;;
6537;SDS011;3302;52.508;13.454;2023-03-13T08:18:49;13.60;;;4.40;;
6537;SDS011;3302;52.508;13.454;2023-03-13T08:21:18;9.90;;;4.00;;
6537;SDS011;3302;52.508;13.454;2023-03-13T08:23:52;9.90;;;3.87;;
6537;SDS011;3302;52.508;13.454;2023-03-13T08:26:19;10.70;;;4.07;;
6537;SDS011;3302;52.508;13.454;2023-03-13T08:28:46;12.20;;;4.00;;
6537;SDS011;3302;52.508;13.454;2023-03-13T08:31:16;13.57;;;4.20;;
6537;SDS011;3302;52.508;13.454;2023-03-13T08:33:43;11.97;;;4.20;;
6537;SDS011;3302;52.508;13.454;2023-03-13T08:38:43;9.63;;;3.80;;
6537;SDS011;3302;52.508;13.454;2023-03-13T08:41:11;9.87;;;3.43;;
6537;SDS011;3302;52.508;13.454;2023-03-13T08:43:41;10.93;;;3.40;;
6537;SDS011;3302;52.508;13.454;2023-03-13T08:46:07;9.50;;;3.93;;
6537;SDS011;3302;52.508;13.454;2023-03-13T08:48:33;11.53;;;3.20;;
6537;SDS011;3302;52.508;13.454;2023-03-13T08:51:00;12.73;;;3.33;;
6537;SDS011;3302;52.508;13.454;2023-03-13T08:53:26;15.10;;;3.70;;
6537;SDS011;3302;52.508;13.454;2023-03-13T08:55:53;11.63;;;3.10;;
6537;SDS011;3302;52.508;13.454;2023-03-13T08:58:19;9.03;;;3.33;;
6537;SDS011;3302;52.508;13.454;2023-03-13T09:00:45;9.63;;;3.83;;
6537;SDS011;3302;52.508;13.454;2023-03-13T09:03:10;8.90;;;2.93;;
6537;SDS011;3302;52.508;13.454;2023-03-13T09:05:37;10.33;;;3.33;;
6537;SDS011;3302;52.508;13.454;2023-03-13T09:08:03;9.90;;;3.80;;
6537;SDS011;3302;52.508;13.454;2023-03-13T09:10:29;7.90;;;2.90;;
6537;SDS011;3302;52.508;13.454;2023-03-13T09:12:57;8.60;;;2.93;;
6537;SDS011;3302;52.508;13.454;2023-03-13T09:15:22;8.47;;;3.27;;
6537;SDS011;3302;52.508;13.454;2023-03-13T09:17:48;6.53;;;2.80;;
6537;SDS011;3302;52.508;13.454;2023-03-13T09:20:14;9.97;;;3.00;;
6537;SDS011;3302;52.508;13.454;2023-03-13T09:22:43;9.80;;;3.50;;
6537;SDS011;3302;52.508;13.454;2023-03-13T09:25:09;7.53;;;2.90;;
6537;SDS011;3302;52.508;13.454;2023-03-13T09:27:35;9.13;;;3.17;;
6537;SDS011;3302;52.508;13.454;2023-03-13T09:30:01;7.80;;;3.03;;
6537;SDS011;3302;52.508;13.454;2023-03-13T09:32:27;9.77;;;3.60;;
6537;SDS011;3302;52.508;13.454;2023-03-13T09:34:53;6.90;;;3.23;;
6537;SDS011;3302;52.508;13.454;2023-03-13T09:37:20;6.23;;;3.00;;
6537;SDS011;3302;52.508;13.454;2023-03-13T09:39:47;7.23;;;3.23;;
6537;SDS011;3302;52.508;13.454;2023-03-13T09:44:54;9.23;;;2.50;;
6537;SDS011;3302;52.508;13.454;2023-03-13T09:50:11;7.30;;;3.70;;
6537;SDS011;3302;52.508;13.454;2023-03-13T09:52:46;9.07;;;2.90;;
6537;SDS011;3302;52.508;13.454;2023-03-13T09:55:22;8.47;;;2.87;;
6537;SDS011;3302;52.508;13.454;2023-03-13T09:58:09;9.60;;;3.33;;
6537;SDS011;3302;52.508;13.454;2023-03-13T10:03:38;9.40;;;2.70;;
6537;SDS011;3302;52.508;13.454;2023-03-13T10:06:13;11.10;;;3.23;;
6537;SDS011;3302;52.508;13.454;2023-03-13T10:08:43;7.30;;;3.00;;
6537;SDS011;3302;52.508;13.454;2023-03-13T10:11:28;6.97;;;2.93;;
6537;SDS011;3302;52.508;13.454;2023-03-13T10:14:20;6.33;;;2.80;;
6537;SDS011;3302;52.508;13.454;2023-03-13T10:17:17;4.17;;;2.70;;
6537;SDS011;3302;52.508;13.454;2023-03-13T10:23:11;6.37;;;2.77;;
6537;SDS011;3302;52.508;13.454;2023-03-13T10:25:42;7.60;;;2.83;;
6537;SDS011;3302;52.508;13.454;2023-03-13T10:28:09;4.53;;;2.50;;
6537;SDS011;3302;52.508;13.454;2023-03-13T10:30:37;7.10;;;2.53;;
6537;SDS011;3302;52.508;13.454;2023-03-13T10:33:27;8.67;;;2.70;;
6537;SDS011;3302;52.508;13.454;2023-03-13T10:36:07;8.97;;;2.13;;
6537;SDS011;3302;52.508;13.454;2023-03-13T10:38:51;5.40;;;2.20;;
6537;SDS011;3302;52.508;13.454;2023-03-13T10:41:26;5.13;;;2.40;;
6537;SDS011;3302;52.508;13.454;2023-03-13T10:43:58;6.47;;;2.57;;
6537;SDS011;3302;52.508;13.454;2023-03-13T10:46:28;3.50;;;2.13;;
6537;SDS011;3302;52.508;13.454;2023-03-13T10:48:56;4.40;;;2.23;;
6537;SDS011;3302;52.508;13.454;2023-03-13T10:51:29;5.57;;;2.17;;
6537;SDS011;3302;52.508;13.454;2023-03-13T10:54:13;4.27;;;2.17;;
6537;SDS011;3302;52.508;13.454;2023-03-13T10:59:56;5.20;;;2.20;;
6537;SDS011;3302;52.508;13.454;2023-03-13T11:07:56;3.13;;;2.07;;
6537;SDS011;3302;52.508;13.454;2023-03-13T11:10:26;4.40;;;2.43;;
6537;SDS011;3302;52.508;13.454;2023-03-13T11:12:55;3.33;;;1.93;;
6537;SDS011;3302;52.508;13.454;2023-03-13T11:15:24;3.33;;;1.90;;
6537;SDS011;3302;52.508;13.454;2023-03-13T11:18:10;3.77;;;2.00;;
6537;SDS011;3302;52.508;13.454;2023-03-13T11:20:40;2.67;;;1.70;;
6537;SDS011;3302;52.508;13.454;2023-03-13T11:23:19;3.10;;;1.70;;
6537;SDS011;3302;52.508;13.454;2023-03-13T11:26:13;2.37;;;1.63;;
6537;SDS011;3302;52.508;13.454;2023-03-13T11:31:45;3.67;;;1.50;;
6537;SDS011;3302;52.508;13.454;2023-03-13T11:37:11;3.10;;;1.70;;
6537;SDS011;3302;52.508;13.454;2023-03-13T11:45:01;2.80;;;1.73;;
6537;SDS011;3302;52.508;13.454;2023-03-13T11:48:00;2.53;;;1.70;;
6537;SDS011;3302;52.508;13.454;2023-03-13T11:50:54;2.87;;;1.60;;
6537;SDS011;3302;52.508;13.454;2023-03-13T12:01:58;4.20;;;1.63;;
6537;SDS011;3302;52.508;13.454;2023-03-13T12:04:36;2.50;;;1.70;;
6537;SDS011;3302;52.508;13.454;2023-03-13T12:07:25;2.23;;;1.40;;
6537;SDS011;3302;52.508;13.454;2023-03-13T12:13:37;2.90;;;1.60;;
6537;SDS011;3302;52.508;13.454;2023-03-13T12:16:08;2.70;;;1.43;;
6537;SDS011;3302;52.508;13.454;2023-03-13T12:18:39;3.07;;;1.60;;
6537;SDS011;3302;52.508;13.454;2023-03-13T12:26:24;2.07;;;1.63;;
6537;SDS011;3302;52.508;13.454;2023-03-13T12:39:38;1.90;;;1.30;;
6537;SDS011;3302;52.508;13.454;2023-03-13T12:45:19;1.50;;;1.30;;
6537;SDS011;3302;52.508;13.454;2023-03-13T13:01:28;3.53;;;1.30;;
6537;SDS011;3302;52.508;13.454;2023-03-13T13:04:19;1.50;;;1.20;;
6537;SDS011;3302;52.508;13.454;2023-03-13T13:06:54;2.70;;;1.10;;
6537;SDS011;3302;52.508;13.454;2023-03-13T13:09:33;2.30;;;1.20;;
6537;SDS011;3302;52.508;13.454;2023-03-13T13:19:57;1.77;;;1.20;;
6537;SDS011;3302;52.508;13.454;2023-03-13T13:22:47;1.47;;;1.27;;
6537;SDS011;3302;52.508;13.454;2023-03-13T13:37:40;1.80;;;1.10;;
6537;SDS011;3302;52.508;13.454;2023-03-13T13:42:55;1.30;;;1.17;;
6537;SDS011;3302;52.508;13.454;2023-03-13T13:45:35;1.63;;;1.13;;
6537;SDS011;3302;52.508;13.454;2023-03-13T13:53:45;1.73;;;1.00;;
6537;SDS011;3302;52.508;13.454;2023-03-13T13:58:56;2.33;;;1.20;;
6537;SDS011;3302;52.508;13.454;2023-03-13T14:01:24;1.97;;;1.20;;
6537;SDS011;3302;52.508;13.454;2023-03-13T14:03:52;1.87;;;1.30;;
6537;SDS011;3302;52.508;13.454;2023-03-13T14:06:23;2.07;;;1.30;;
6537;SDS011;3302;52.508;13.454;2023-03-13T14:08:55;2.17;;;1.60;;
6537;SDS011;3302;52.508;13.454;2023-03-13T14:11:27;2.27;;;1.40;;
6537;SDS011;3302;52.508;13.454;2023-03-13T14:14:08;3.40;;;1.60;;
6537;SDS011;3302;52.508;13.454;2023-03-13T14:16:52;3.27;;;1.27;;
6537;SDS011;3302;52.508;13.454;2023-03-13T14:21:50;1.70;;;1.40;;
6537;SDS011;3302;52.508;13.454;2023-03-13T14:24:21;2.47;;;1.73;;
6537;SDS011;3302;52.508;13.454;2023-03-13T14:26:47;3.03;;;1.50;;
6537;SDS011;3302;52.508;13.454;2023-03-13T14:29:16;1.57;;;1.30;;
6537;SDS011;3302;52.508;13.454;2023-03-13T14:31:50;2.67;;;1.90;;
6537;SDS011;3302;52.508;13.454;2023-03-13T14:34:17;3.53;;;1.40;;
6537;SDS011;3302;52.508;13.454;2023-03-13T14:42:10;2.00;;;1.60;;
6537;SDS011;3302;52.508;13.454;2023-03-13T14:44:38;3.20;;;1.80;;
6537;SDS011;3302;52.508;13.454;2023-03-13T14:47:26;1.57;;;1.47;;
6537;SDS011;3302;52.508;13.454;2023-03-13T14:49:57;1.93;;;1.47;;
6537;SDS011;3302;52.508;13.454;2023-03-13T14:52:29;1.90;;;1.40;;
6537;SDS011;3302;52.508;13.454;2023-03-13T14:55:04;5.83;;;1.57;;
6537;SDS011;3302;52.508;13.454;2023-03-13T14:57:33;2.10;;;1.30;;
6537;SDS011;3302;52.508;13.454;2023-03-13T15:08:25;2.53;;;1.27;;
6537;SDS011;3302;52.508;13.454;2023-03-13T15:10:51;2.20;;;1.40;;
6537;SDS011;3302;52.508;13.454;2023-03-13T15:15:58;3.70;;;1.67;;
6537;SDS011;3302;52.508;13.454;2023-03-13T15:18:25;5.40;;;1.93;;
6537;SDS011;3302;52.508;13.454;2023-03-13T15:20:57;3.53;;;1.43;;
6537;SDS011;3302;52.508;13.454;2023-03-13T15:23:41;2.90;;;1.50;;
6537;SDS011;3302;52.508;13.454;2023-03-13T15:26:17;1.43;;;1.30;;
6537;SDS011;3302;52.508;13.454;2023-03-13T15:28:43;1.97;;;1.47;;
6537;SDS011;3302;52.508;13.454;2023-03-13T15:31:09;2.13;;;1.70;;
6537;SDS011;3302;52.508;13.454;2023-03-13T15:33:37;13.50;;;1.97;;
6537;SDS011;3302;52.508;13.454;2023-03-13T15:36:03;2.53;;;1.63;;
6537;SDS011;3302;52.508;13.454;2023-03-13T15:38:29;3.53;;;1.50;;
6537;SDS011;3302;52.508;13.454;2023-03-13T15:40:55;2.30;;;1.63;;
6537;SDS011;3302;52.508;13.454;2023-03-13T15:43:21;3.43;;;1.50;;
6537;SDS011;3302;52.508;13.454;2023-03-13T15:45:48;2.10;;;1.77;;
6537;SDS011;3302;52.508;13.454;2023-03-13T15:48:25;1.70;;;1.43;;
6537;SDS011;3302;52.508;13.454;2023-03-13T15:50:53;1.80;;;1.43;;
6537;SDS011;3302;52.508;13.454;2023-03-13T15:53:29;3.03;;;1.70;;
6537;SDS011;3302;52.508;13.454;2023-03-13T15:55:58;2.33;;;1.50;;
6537;SDS011;3302;52.508;13.454;2023-03-13T15:58:25;2.23;;;1.67;;
6537;SDS011;3302;52.508;13.454;2023-03-13T16:00:52;3.50;;;1.70;;
6537;SDS011;3302;52.508;13.454;2023-03-13T16:03:20;2.83;;;1.70;;
6537;SDS011;3302;52.508;13.454;2023-03-13T16:05:49;1.97;;;1.60;;
6537;SDS011;3302;52.508;13.454;2023-03-13T16:08:20;1.77;;;1.40;;
6537;SDS011;3302;52.508;13.454;2023-03-13T16:10:48;2.07;;;1.57;;
6537;SDS011;3302;52.508;13.454;2023-03-13T16:13:13;2.60;;;1.50;;
6537;SDS011;3302;52.508;13.454;2023-03-13T16:15:40;2.43;;;1.60;;
6537;SDS011;3302;52.508;13.454;2023-03-13T16:18:08;3.63;;;1.67;;
6537;SDS011;3302;52.508;13.454;2023-03-13T16:20:42;4.60;;;2.20;;
6537;SDS011;3302;52.508;13.454;2023-03-13T16:23:08;2.10;;;1.63;;
6537;SDS011;3302;52.508;13.454;2023-03-13T16:25:34;3.00;;;1.63;;
6537;SDS011;3302;52.508;13.454;2023-03-13T16:28:00;1.80;;;1.57;;
6537;SDS011;3302;52.508;13.454;2023-03-13T16:30:29;5.07;;;1.63;;
6537;SDS011;3302;52.508;13.454;2023-03-13T16:32:56;1.80;;;1.60;;
6537;SDS011;3302;52.508;13.454;2023-03-13T16:35:23;3.83;;;1.63;;
6537;SDS011;3302;52.508;13.454;2023-03-13T16:37:53;2.50;;;2.10;;
6537;SDS011;3302;52.508;13.454;2023-03-13T16:40:21;2.60;;;2.30;;
6537;SDS011;3302;52.508;13.454;2023-03-13T16:42:49;3.00;;;1.93;;
6537;SDS011;3302;52.508;13.454;2023-03-13T16:45:15;2.60;;;2.37;;
6537;SDS011;3302;52.508;13.454;2023-03-13T16:47:42;4.50;;;2.07;;
6537;SDS011;3302;52.508;13.454;2023-03-13T16:50:53;2.73;;;1.80;;
6537;SDS011;3302;52.508;13.454;2023-03-13T16:53:01;3.37;;;2.10;;
6537;SDS011;3302;52.508;13.454;2023-03-13T16:55:27;2.00;;;1.63;;
6537;SDS011;3302;52.508;13.454;2023-03-13T16:57:57;3.67;;;1.63;;
6537;SDS011;3302;52.508;13.454;2023-03-13T17:00:24;2.87;;;1.90;;
6537;SDS011;3302;52.508;13.454;2023-03-13T17:02:52;2.23;;;1.80;;
6537;SDS011;3302;52.508;13.454;2023-03-13T17:05:19;2.40;;;1.63;;
6537;SDS011;3302;52.508;13.454;2023-03-13T17:07:46;3.40;;;2.10;;
6537;SDS011;3302;52.508;13.454;2023-03-13T17:10:26;4.07;;;1.83;;
6537;SDS011;3302;52.508;13.454;2023-03-13T17:12:54;1.87;;;1.63;;
6537;SDS011;3302;52.508;13.454;2023-03-13T17:15:20;2.00;;;1.80;;
6537;SDS011;3302;52.508;13.454;2023-03-13T17:17:47;3.80;;;2.00;;
6537;SDS011;3302;52.508;13.454;2023-03-13T17:20:20;2.23;;;1.57;;